createdAt,value
2023-05-17T00:02:00.803Z,99955.56
2023-05-17T00:04:28.544Z,99956.94
2023-05-17T00:06:55.871Z,99945.91
2023-05-17T00:09:23.179Z,99946.50
2023-05-17T00:11:50.725Z,99946.81
2023-05-17T00:14:18.095Z,99942.66
2023-05-17T00:16:45.435Z,99945.88
2023-05-17T00:19:13.014Z,99953.94
2023-05-17T00:21:40.608Z,99949.66
2023-05-17T00:24:09.340Z,99943.31
2023-05-17T00:26:36.921Z,99952.25
2023-05-17T00:29:04.381Z,99931.88
2023-05-17T00:31:32.824Z,99940.00
2023-05-17T00:34:00.293Z,99939.91
2023-05-17T00:36:27.762Z,99928.72
2023-05-17T00:38:55.443Z,99933.75
2023-05-17T00:41:22.844Z,99930.22
2023-05-17T00:43:50.235Z,99922.75
2023-05-17T00:46:17.551Z,99922.09
2023-05-17T00:48:45.080Z,99915.78
2023-05-17T00:51:13.551Z,99923.19
2023-05-17T00:53:40.997Z,99917.88
2023-05-17T00:56:08.416Z,99927.19
2023-05-17T00:58:37.178Z,99926.56
2023-05-17T01:01:06.829Z,99929.97
2023-05-17T01:03:34.357Z,99926.69
2023-05-17T01:06:02.195Z,99931.75
2023-05-17T01:08:29.838Z,99928.56
2023-05-17T01:11:01.831Z,99928.16
2023-05-17T01:13:36.162Z,99928.13
2023-05-17T01:16:13.718Z,99924.44
2023-05-17T01:18:51.355Z,99931.44
2023-05-17T01:21:31.745Z,99939.00
2023-05-17T01:24:17.270Z,99930.31
2023-05-17T01:26:47.370Z,99936.34
2023-05-17T01:29:17.168Z,99934.56
2023-05-17T01:31:44.965Z,99940.66
2023-05-17T01:34:13.161Z,99943.25
2023-05-17T01:36:40.622Z,99939.75
2023-05-17T01:39:09.396Z,99939.59
2023-05-17T01:41:39.362Z,99945.69
2023-05-17T01:44:12.610Z,99946.75
2023-05-17T01:46:41.699Z,99953.41
2023-05-17T01:49:12.416Z,99959.97
2023-05-17T01:51:55.341Z,99962.31
2023-05-17T01:54:26.416Z,99959.44
2023-05-17T01:56:57.742Z,99960.84
2023-05-17T01:59:25.880Z,99967.75
2023-05-17T02:01:55.898Z,99970.81
2023-05-17T02:04:23.504Z,99968.09
2023-05-17T02:06:51.183Z,99971.03
2023-05-17T02:09:18.646Z,99977.25
2023-05-17T02:11:46.187Z,99970.88
2023-05-17T02:14:13.634Z,99975.25
2023-05-17T02:16:43.416Z,99971.25
2023-05-17T02:19:13.613Z,99976.47
2023-05-17T02:21:41.517Z,99979.59
2023-05-17T02:24:09.073Z,99978.31
2023-05-17T02:26:36.644Z,99984.00
2023-05-17T02:29:04.266Z,99985.41
2023-05-17T02:31:31.984Z,99988.81
2023-05-17T02:33:59.549Z,99981.81
2023-05-17T02:36:26.958Z,99984.09
2023-05-17T02:38:54.347Z,99979.53
2023-05-17T02:41:21.819Z,99990.44
2023-05-17T02:43:49.685Z,99987.56
2023-05-17T02:46:17.512Z,99997.56
2023-05-17T02:48:45.241Z,99998.00
2023-05-17T02:51:12.604Z,100000.13
2023-05-17T02:53:39.990Z,100000.03
2023-05-17T02:56:07.798Z,100007.72
2023-05-17T02:58:36.428Z,100016.47
2023-05-17T03:01:03.914Z,100013.75
2023-05-17T03:03:32.002Z,100014.06
2023-05-17T03:06:01.982Z,100013.25
2023-05-17T03:08:29.989Z,100026.47
2023-05-17T03:10:58.160Z,100024.47
2023-05-17T03:13:25.686Z,100037.34
2023-05-17T03:15:54.284Z,100037.66
2023-05-17T03:18:22.010Z,100042.06
2023-05-17T03:20:49.555Z,100054.16
2023-05-17T03:23:17.879Z,100046.44
2023-05-17T03:25:54.538Z,100056.63
2023-05-17T03:28:22.120Z,100063.00
2023-05-17T03:30:49.822Z,100061.53
2023-05-17T03:33:17.510Z,100069.78
2023-05-17T03:35:47.042Z,100072.41
2023-05-17T03:38:14.948Z,100069.50
2023-05-17T03:40:42.363Z,100081.72
2023-05-17T03:43:09.802Z,100085.13
2023-05-17T03:45:37.502Z,100085.00
2023-05-17T03:48:05.272Z,100088.56
2023-05-17T03:50:32.891Z,100095.41
2023-05-17T03:53:00.852Z,100099.66
2023-05-17T03:55:28.552Z,100108.94
2023-05-17T03:57:56.200Z,100115.28
2023-05-17T04:00:24.681Z,100110.13
2023-05-17T04:02:56.187Z,100116.09
2023-05-17T04:05:23.595Z,100130.31
2023-05-17T04:07:51.170Z,100124.88
2023-05-17T04:10:18.634Z,100123.75
2023-05-17T04:12:46.560Z,100132.06
2023-05-17T04:15:15.247Z,100137.97
2023-05-17T04:17:43.814Z,100142.03
2023-05-17T04:20:11.549Z,100148.16
2023-05-17T04:22:39.055Z,100156.19
2023-05-17T04:25:07.085Z,100146.44
2023-05-17T04:27:36.039Z,100155.13
2023-05-17T04:30:06.067Z,100154.66
2023-05-17T04:32:34.392Z,100148.47
2023-05-17T04:35:04.057Z,100148.91
2023-05-17T04:37:31.658Z,100155.03
2023-05-17T04:40:04.496Z,100143.66
2023-05-17T04:42:33.398Z,100160.00
2023-05-17T04:45:01.446Z,100162.94
2023-05-17T04:47:31.747Z,100161.91
2023-05-17T04:49:59.246Z,100167.25
2023-05-17T04:52:26.697Z,100166.69
2023-05-17T04:54:54.279Z,100166.09
2023-05-17T04:57:22.934Z,100164.47
2023-05-17T04:59:56.694Z,100171.41
2023-05-17T05:02:25.294Z,100175.75
2023-05-17T05:04:52.889Z,100180.19
2023-05-17T05:07:22.989Z,100186.06
2023-05-17T05:09:51.646Z,100183.63
2023-05-17T05:12:19.917Z,100185.06
2023-05-17T05:14:48.118Z,100185.91
2023-05-17T05:17:15.743Z,100197.06
2023-05-17T05:19:43.363Z,100199.34
2023-05-17T05:22:11.550Z,100199.72
2023-05-17T05:24:40.012Z,100206.53
2023-05-17T05:27:07.905Z,100200.31
2023-05-17T05:29:36.792Z,100211.41
2023-05-17T05:32:04.470Z,100208.78
2023-05-17T05:34:36.855Z,100207.63
2023-05-17T05:37:05.075Z,100215.19
2023-05-17T05:39:33.111Z,100213.19
2023-05-17T05:42:01.667Z,100222.97
2023-05-17T05:44:30.732Z,100219.47
2023-05-17T05:46:58.675Z,100221.34
2023-05-17T05:49:27.161Z,100221.88
2023-05-17T05:51:55.073Z,100234.06
2023-05-17T05:54:22.871Z,100226.19
2023-05-17T05:56:51.908Z,100225.78
2023-05-17T05:59:20.884Z,100230.97
2023-05-17T06:01:49.630Z,100227.69
2023-05-17T06:04:17.222Z,100219.81
2023-05-17T06:06:44.741Z,100225.16
2023-05-17T06:09:12.533Z,100224.75
2023-05-17T06:11:40.032Z,100230.06
2023-05-17T06:14:07.996Z,100235.50
2023-05-17T06:16:35.495Z,100241.16
2023-05-17T06:19:03.431Z,100237.63
2023-05-17T06:21:31.522Z,100229.63
2023-05-17T06:23:59.081Z,100242.59
2023-05-17T06:26:26.411Z,100239.69
2023-05-17T06:28:53.811Z,100240.81
2023-05-17T06:31:21.420Z,100247.22
2023-05-17T06:33:48.833Z,100245.97
2023-05-17T06:36:16.282Z,100244.75
2023-05-17T06:38:43.906Z,100237.84
2023-05-17T06:41:11.463Z,100249.22
2023-05-17T06:43:38.871Z,100252.03
2023-05-17T06:46:07.310Z,100259.84
2023-05-17T06:48:34.791Z,100252.22
2023-05-17T06:51:03.662Z,100253.97
2023-05-17T06:53:31.005Z,100261.44
2023-05-17T06:55:58.360Z,100268.69
2023-05-17T06:58:25.647Z,100278.19
2023-05-17T07:00:52.995Z,100281.28
2023-05-17T07:03:20.783Z,100276.22
2023-05-17T07:05:48.230Z,100283.09
2023-05-17T07:08:15.863Z,100286.03
2023-05-17T07:10:43.299Z,100286.88
2023-05-17T07:13:16.026Z,100287.59
2023-05-17T07:15:51.112Z,100282.34
2023-05-17T07:18:18.537Z,100283.03
2023-05-17T07:20:46.432Z,100281.59
2023-05-17T07:23:13.773Z,100282.31
2023-05-17T07:25:43.127Z,100283.78
2023-05-17T07:28:10.470Z,100291.13
2023-05-17T07:30:37.767Z,100278.75
2023-05-17T07:33:05.169Z,100278.50
2023-05-17T07:35:32.688Z,100276.75
2023-05-17T07:38:01.074Z,100282.38
2023-05-17T07:40:31.300Z,100282.44
2023-05-17T07:42:58.693Z,100273.41
2023-05-17T07:45:27.178Z,100277.44
2023-05-17T07:47:55.510Z,100279.34
2023-05-17T07:50:23.409Z,100288.97
2023-05-17T07:52:50.753Z,100285.25
2023-05-17T07:55:18.096Z,100294.72
2023-05-17T07:57:47.471Z,100309.16
2023-05-17T08:00:15.116Z,100310.38
2023-05-17T08:02:43.238Z,100312.81
2023-05-17T08:05:10.775Z,100315.63
2023-05-17T08:07:38.147Z,100320.50
2023-05-17T08:10:05.729Z,100329.63
2023-05-17T08:12:33.077Z,100330.19
2023-05-17T08:15:00.473Z,100329.78
2023-05-17T08:17:27.841Z,100344.22
2023-05-17T08:19:55.294Z,100336.78
2023-05-17T08:22:22.688Z,100349.50
2023-05-17T08:24:50.068Z,100358.72
2023-05-17T08:27:17.381Z,100361.13
2023-05-17T08:29:47.105Z,100356.28
2023-05-17T08:32:14.433Z,100360.47
2023-05-17T08:34:41.848Z,100364.34
2023-05-17T08:37:10.328Z,100364.03
2023-05-17T08:39:37.780Z,100374.31
2023-05-17T08:42:07.807Z,100376.63
2023-05-17T08:44:36.536Z,100375.31
2023-05-17T08:47:04.123Z,100386.00
2023-05-17T08:49:34.407Z,100379.88
2023-05-17T08:52:03.513Z,100379.44
2023-05-17T08:54:31.105Z,100385.56
2023-05-17T08:57:00.142Z,100392.13
2023-05-17T08:59:34.157Z,100395.38
2023-05-17T09:02:02.775Z,100400.13
2023-05-17T09:04:31.404Z,100400.34
2023-05-17T09:06:59.025Z,100402.00
2023-05-17T09:09:27.183Z,100408.59
2023-05-17T09:11:55.209Z,100410.63
2023-05-17T09:14:22.551Z,100415.59
2023-05-17T09:16:55.930Z,100405.25
2023-05-17T09:19:23.299Z,100402.16
2023-05-17T09:21:50.822Z,100402.94
2023-05-17T09:24:20.335Z,100403.22
2023-05-17T09:26:47.616Z,100400.38
2023-05-17T09:29:19.759Z,100395.00
2023-05-17T09:31:47.598Z,100391.66
2023-05-17T09:34:18.243Z,100391.66
2023-05-17T09:36:46.190Z,100395.41
2023-05-17T09:39:15.246Z,100409.94
2023-05-17T09:41:42.745Z,100406.97
2023-05-17T09:44:11.059Z,100414.69
2023-05-17T09:46:41.444Z,100418.69
2023-05-17T09:49:09.483Z,100419.41
2023-05-17T09:51:36.937Z,100424.31
2023-05-17T09:54:04.276Z,100427.00
2023-05-17T09:56:31.645Z,100443.50
2023-05-17T09:59:01.317Z,100435.56
2023-05-17T10:01:29.314Z,100444.56
2023-05-17T10:03:59.675Z,100439.69
2023-05-17T10:09:00.758Z,100439.34
2023-05-17T10:11:34.143Z,100434.22
2023-05-17T10:14:05.383Z,100431.94
2023-05-17T10:16:36.799Z,100432.13
2023-05-17T10:19:04.661Z,100436.31
2023-05-17T10:21:32.686Z,100443.75
2023-05-17T10:24:02.061Z,100438.91
2023-05-17T10:26:29.658Z,100442.28
2023-05-17T10:29:01.573Z,100447.41
2023-05-17T10:31:29.797Z,100447.31
2023-05-17T10:33:57.303Z,100443.34
2023-05-17T10:36:25.059Z,100446.94
2023-05-17T10:38:52.695Z,100449.66
2023-05-17T10:41:21.945Z,100447.75
2023-05-17T10:43:49.767Z,100455.91
2023-05-17T10:46:21.420Z,100452.41
2023-05-17T10:48:51.171Z,100449.81
2023-05-17T10:51:25.281Z,100453.22
2023-05-17T10:54:05.882Z,100452.38
2023-05-17T10:56:33.530Z,100458.59
2023-05-17T10:59:16.431Z,100457.66
2023-05-17T11:01:55.990Z,100462.44
2023-05-17T11:04:25.878Z,100459.19
2023-05-17T11:06:54.705Z,100457.75
2023-05-17T11:09:23.147Z,100454.91
2023-05-17T11:12:06.820Z,100461.56
2023-05-17T11:14:46.060Z,100464.44
2023-05-17T11:17:17.974Z,100465.81
2023-05-17T11:20:13.122Z,100475.88
2023-05-17T11:22:42.572Z,100469.41
2023-05-17T11:25:11.620Z,100467.78
2023-05-17T11:27:48.858Z,100461.84
2023-05-17T11:30:21.962Z,100467.75
2023-05-17T11:32:50.191Z,100464.88
2023-05-17T11:35:18.383Z,100470.31
2023-05-17T11:37:45.874Z,100473.56
2023-05-17T11:40:13.729Z,100473.66
2023-05-17T11:42:41.322Z,100483.63
2023-05-17T11:45:08.904Z,100480.66
2023-05-17T11:47:39.271Z,100485.44
2023-05-17T11:50:07.003Z,100479.59
2023-05-17T11:52:34.317Z,100478.75
2023-05-17T11:55:01.658Z,100486.63
2023-05-17T11:57:32.176Z,100486.63
2023-05-17T12:00:04.987Z,100485.16
2023-05-17T12:02:39.932Z,100490.69
2023-05-17T12:05:09.164Z,100498.13
2023-05-17T12:07:37.469Z,100494.00
2023-05-17T12:10:06.572Z,100507.97
2023-05-17T12:12:33.874Z,100504.81
2023-05-17T12:15:01.219Z,100510.91
2023-05-17T12:17:31.760Z,100512.97
2023-05-17T12:20:06.919Z,100509.84
2023-05-17T12:22:34.342Z,100510.53
2023-05-17T12:25:01.649Z,100508.28
2023-05-17T12:27:29.258Z,100503.69
2023-05-17T12:29:56.600Z,100502.63
2023-05-17T12:32:24.987Z,100507.06
2023-05-17T12:34:52.582Z,100508.41
2023-05-17T12:37:19.926Z,100513.78
2023-05-17T12:39:47.263Z,100515.78
2023-05-17T12:42:15.158Z,100519.84
2023-05-17T12:44:44.894Z,100523.94
2023-05-17T12:47:14.649Z,100525.31
2023-05-17T12:49:54.626Z,100529.94
2023-05-17T12:52:22.191Z,100527.34
2023-05-17T12:54:50.536Z,100530.31
2023-05-17T12:57:18.710Z,100534.34
2023-05-17T12:59:54.750Z,100536.16
2023-05-17T13:02:23.884Z,100536.19
2023-05-17T13:04:51.735Z,100528.03
2023-05-17T13:07:24.185Z,100534.00
2023-05-17T13:09:52.034Z,100536.53
2023-05-17T13:12:21.249Z,100537.69
2023-05-17T13:14:51.927Z,100534.13
2023-05-17T13:17:25.553Z,100542.78
2023-05-17T13:20:00.940Z,100538.03
2023-05-17T13:22:34.224Z,100537.28
2023-05-17T13:25:05.647Z,100536.44
2023-05-17T13:27:33.390Z,100531.41
2023-05-17T13:30:00.795Z,100522.34
2023-05-17T13:32:31.766Z,100536.19
2023-05-17T13:34:59.534Z,100536.75
2023-05-17T13:37:27.002Z,100534.97
2023-05-17T13:39:56.960Z,100527.00
2023-05-17T13:42:24.562Z,100534.19
2023-05-17T13:44:52.013Z,100530.69
2023-05-17T13:47:19.414Z,100535.53
2023-05-17T13:49:46.819Z,100533.38
2023-05-17T13:52:14.702Z,100534.47
2023-05-17T13:54:42.125Z,100539.34
2023-05-17T13:57:09.609Z,100538.19
2023-05-17T13:59:37.132Z,100535.59
2023-05-17T14:02:04.758Z,100541.88
2023-05-17T14:04:32.374Z,100538.09
2023-05-17T14:06:59.717Z,100543.41
2023-05-17T14:09:27.078Z,100536.69
2023-05-17T14:11:54.566Z,100541.16
2023-05-17T14:14:25.109Z,100543.63
2023-05-17T14:16:52.456Z,100543.22
2023-05-17T14:19:38.037Z,100539.06
2023-05-17T14:22:15.942Z,100546.66
2023-05-17T14:24:43.336Z,100535.50
2023-05-17T14:27:11.706Z,100542.34
2023-05-17T14:29:39.071Z,100536.00
2023-05-17T14:32:06.892Z,100548.06
2023-05-17T14:34:34.421Z,100546.13
2023-05-17T14:37:04.113Z,100551.91
2023-05-17T14:39:32.245Z,100550.81
2023-05-17T14:41:59.896Z,100557.56
2023-05-17T14:44:27.406Z,100547.28
2023-05-17T14:46:57.268Z,100563.56
2023-05-17T14:49:25.853Z,100568.06
2023-05-17T14:51:54.083Z,100564.75
2023-05-17T14:54:21.960Z,100566.16
2023-05-17T14:56:49.305Z,100571.94
2023-05-17T14:59:16.553Z,100572.28
2023-05-17T15:01:43.865Z,100574.19
2023-05-17T15:04:11.400Z,100571.59
2023-05-17T15:06:38.786Z,100584.03
2023-05-17T15:09:06.407Z,100580.06
2023-05-17T15:11:33.945Z,100563.03
2023-05-17T15:14:03.518Z,100569.00
2023-05-17T15:16:30.812Z,100571.81
2023-05-17T15:18:58.348Z,100571.09
2023-05-17T15:21:25.683Z,100576.75
2023-05-17T15:23:52.890Z,100579.09
2023-05-17T15:26:20.252Z,100581.94
2023-05-17T15:28:50.028Z,100584.75
2023-05-17T15:31:17.360Z,100579.31
2023-05-17T15:33:44.614Z,100585.44
2023-05-17T15:36:13.222Z,100591.78
2023-05-17T15:38:40.709Z,100586.59
2023-05-17T15:41:10.953Z,100587.84
2023-05-17T15:43:38.377Z,100586.50
2023-05-17T15:46:05.916Z,100590.25
2023-05-17T15:48:34.368Z,100591.69
2023-05-17T15:51:02.070Z,100592.88
2023-05-17T15:53:30.266Z,100598.34
2023-05-17T15:55:57.584Z,100593.31
2023-05-17T15:58:28.245Z,100596.19
2023-05-17T16:00:55.584Z,100594.75
2023-05-17T16:03:22.767Z,100602.66
2023-05-17T16:05:50.047Z,100602.13
2023-05-17T16:08:17.525Z,100604.06
2023-05-17T16:10:44.830Z,100601.50
2023-05-17T16:13:12.467Z,100605.75
2023-05-17T16:15:39.702Z,100605.41
2023-05-17T16:18:07.220Z,100607.06
2023-05-17T16:20:34.607Z,100616.13
2023-05-17T16:23:01.883Z,100606.22
2023-05-17T16:25:29.260Z,100605.22
2023-05-17T16:27:57.232Z,100607.91
2023-05-17T16:30:24.714Z,100610.94
2023-05-17T16:32:53.151Z,100605.31
2023-05-17T16:35:23.256Z,100602.09
2023-05-17T16:37:50.576Z,100612.09
2023-05-17T16:40:17.837Z,100613.81
2023-05-17T16:42:45.269Z,100608.81
2023-05-17T16:45:12.600Z,100615.38
2023-05-17T16:47:40.432Z,100616.72
2023-05-17T16:50:09.176Z,100617.59
2023-05-17T16:52:40.083Z,100618.06
2023-05-17T16:55:27.538Z,100619.28
2023-05-17T16:57:55.046Z,100622.25
2023-05-17T17:00:23.142Z,100626.25
2023-05-17T17:02:50.685Z,100620.56
2023-05-17T17:05:18.208Z,100623.41
2023-05-17T17:07:47.382Z,100615.31
2023-05-17T17:10:14.814Z,100624.88
2023-05-17T17:12:42.257Z,100631.88
2023-05-17T17:15:10.013Z,100627.41
2023-05-17T17:17:37.608Z,100639.25
2023-05-17T17:20:05.811Z,100636.88
2023-05-17T17:22:33.118Z,100635.59
2023-05-17T17:25:00.594Z,100631.97
2023-05-17T17:27:28.009Z,100639.94
2023-05-17T17:29:55.723Z,100639.13
2023-05-17T17:32:23.243Z,100646.38
2023-05-17T17:34:50.814Z,100646.47
2023-05-17T17:37:18.305Z,100648.13
2023-05-17T17:39:45.758Z,100645.84
2023-05-17T17:42:13.268Z,100652.94
2023-05-17T17:44:40.645Z,100658.22
2023-05-17T17:47:08.291Z,100660.16
2023-05-17T17:49:36.172Z,100662.72
2023-05-17T17:52:03.640Z,100670.78
2023-05-17T17:54:31.070Z,100669.41
2023-05-17T17:56:58.534Z,100672.75
2023-05-17T17:59:26.060Z,100672.06
2023-05-17T18:01:53.546Z,100673.97
2023-05-17T18:04:20.963Z,100678.03
2023-05-17T18:06:48.376Z,100684.97
2023-05-17T18:09:15.985Z,100683.09
2023-05-17T18:11:43.333Z,100687.81
2023-05-17T18:14:10.664Z,100682.13
2023-05-17T18:16:38.106Z,100682.13
2023-05-17T18:19:05.558Z,100668.47
2023-05-17T18:21:32.959Z,100681.75
2023-05-17T18:24:00.573Z,100673.88
2023-05-17T18:26:27.937Z,100678.78
2023-05-17T18:28:55.268Z,100682.00
2023-05-17T18:31:22.652Z,100679.31
2023-05-17T18:33:49.997Z,100678.66
2023-05-17T18:36:17.283Z,100684.50
2023-05-17T18:38:44.803Z,100687.06
2023-05-17T18:41:12.096Z,100692.84
2023-05-17T18:43:39.428Z,100703.28
2023-05-17T18:46:06.783Z,100705.06
2023-05-17T18:48:36.589Z,100714.41
2023-05-17T18:51:03.976Z,100719.16
2023-05-17T18:53:36.029Z,100719.56
2023-05-17T18:56:03.610Z,100723.38
2023-05-17T18:58:39.598Z,100721.44
2023-05-17T19:01:12.466Z,100718.91
2023-05-17T19:03:41.227Z,100729.16
2023-05-17T19:06:11.471Z,100726.75
2023-05-17T19:08:42.210Z,100730.34
2023-05-17T19:11:24.350Z,100734.53
2023-05-17T19:14:00.200Z,100729.91
2023-05-17T19:17:03.936Z,100743.41
2023-05-17T19:19:34.646Z,100751.13
2023-05-17T19:22:14.725Z,100759.94
2023-05-17T19:24:42.836Z,100767.16
2023-05-17T19:27:17.739Z,100769.47
2023-05-17T19:29:49.872Z,100773.06
2023-05-17T19:32:19.251Z,100774.06
2023-05-17T19:34:48.640Z,100780.66
2023-05-17T19:37:16.595Z,100782.31
2023-05-17T19:39:48.433Z,100786.56
2023-05-17T19:42:22.088Z,100789.72
2023-05-17T19:44:53.799Z,100790.16
2023-05-17T19:47:26.501Z,100788.13
2023-05-17T19:49:56.749Z,100783.63
2023-05-17T19:52:41.198Z,100793.63
2023-05-17T19:55:35.073Z,100790.88
2023-05-17T19:58:25.614Z,100800.22
2023-05-17T20:00:53.855Z,100801.53
2023-05-17T20:03:22.758Z,100801.81
2023-05-17T20:05:56.742Z,100811.13
2023-05-17T20:08:27.047Z,100808.88
2023-05-17T20:10:54.732Z,100816.91
2023-05-17T20:13:25.616Z,100821.56
2023-05-17T20:15:56.424Z,100819.16
2023-05-17T20:18:30.163Z,100819.34
2023-05-17T20:20:57.980Z,100829.06
2023-05-17T20:23:28.679Z,100830.44
2023-05-17T20:25:56.226Z,100833.66
2023-05-17T20:28:26.046Z,100836.78
2023-05-17T20:30:53.624Z,100837.66
2023-05-17T20:33:26.469Z,100841.91
2023-05-17T20:35:56.310Z,100843.50
2023-05-17T20:38:23.830Z,100845.53
2023-05-17T20:40:52.157Z,100845.97
2023-05-17T20:43:19.962Z,100859.03
2023-05-17T20:49:32.102Z,100865.75
2023-05-17T20:52:03.526Z,100863.63
2023-05-17T20:54:31.240Z,100864.88
2023-05-17T20:56:58.751Z,100863.09
2023-05-17T20:59:26.698Z,100866.69
2023-05-17T21:01:55.404Z,100865.22
2023-05-17T21:04:22.893Z,100863.44
2023-05-17T21:06:50.263Z,100865.06
2023-05-17T21:09:18.993Z,100865.69
2023-05-17T21:11:55.255Z,100867.81
2023-05-17T21:14:23.777Z,100871.47
2023-05-17T21:16:53.929Z,100871.63
2023-05-17T21:19:22.746Z,100869.47
2023-05-17T21:22:00.507Z,100866.00
2023-05-17T21:24:29.219Z,100877.22
2023-05-17T21:26:56.844Z,100868.03
2023-05-17T21:29:53.758Z,100880.84
2023-05-17T21:32:21.332Z,100882.72
2023-05-17T21:34:48.897Z,100888.91
2023-05-17T21:37:18.667Z,100888.19
2023-05-17T21:39:46.140Z,100892.03
2023-05-17T21:42:13.597Z,100896.94
2023-05-17T21:44:41.187Z,100898.81
2023-05-17T21:47:09.059Z,100897.50
2023-05-17T21:49:36.519Z,100893.09
2023-05-17T21:52:33.275Z,100902.97
2023-05-17T21:55:51.376Z,100905.66
2023-05-17T21:58:30.030Z,100905.78
2023-05-17T22:00:57.571Z,100911.34
2023-05-17T22:03:25.557Z,100908.38
2023-05-17T22:05:53.113Z,100917.97
2023-05-17T22:08:21.762Z,100920.84
2023-05-17T22:10:50.343Z,100920.91
2023-05-17T22:13:18.436Z,100920.94
2023-05-17T22:15:45.938Z,100923.31
2023-05-17T22:18:13.975Z,100922.75
2023-05-17T22:20:41.470Z,100923.25
2023-05-17T22:23:10.114Z,100920.63
2023-05-17T22:25:37.533Z,100925.91
2023-05-17T22:28:04.971Z,100930.53
2023-05-17T22:30:32.568Z,100932.28
2023-05-17T22:33:01.226Z,100929.25
2023-05-17T22:35:28.770Z,100931.09
2023-05-17T22:37:56.219Z,100933.94
2023-05-17T22:40:23.681Z,100929.91
2023-05-17T22:42:51.989Z,100929.97
2023-05-17T22:45:19.463Z,100926.56
2023-05-17T22:47:47.069Z,100936.94
2023-05-17T22:50:15.726Z,100934.81
2023-05-17T22:52:43.372Z,100932.06
2023-05-17T22:55:11.033Z,100943.47
2023-05-17T22:57:38.592Z,100942.28
2023-05-17T23:00:08.786Z,100949.50
2023-05-17T23:02:36.406Z,100937.47
2023-05-17T23:05:04.125Z,100945.16
2023-05-17T23:07:37.270Z,100950.28
2023-05-17T23:10:05.404Z,100952.38
2023-05-17T23:12:33.418Z,100957.31
2023-05-17T23:15:00.805Z,100950.31
2023-05-17T23:17:32.681Z,100950.13
2023-05-17T23:20:08.077Z,100946.34
2023-05-17T23:22:35.966Z,100947.28
2023-05-17T23:25:03.773Z,100945.97
2023-05-17T23:27:31.657Z,100938.47
2023-05-17T23:29:59.208Z,100943.81
2023-05-17T23:32:26.928Z,100953.50
2023-05-17T23:34:58.506Z,100947.78
2023-05-17T23:37:26.097Z,100941.84
2023-05-17T23:39:53.471Z,100941.81
2023-05-17T23:42:22.413Z,100940.91
2023-05-17T23:44:49.781Z,100939.69
2023-05-17T23:47:17.241Z,100930.38
2023-05-17T23:49:44.568Z,100938.59
2023-05-17T23:52:12.046Z,100934.56
2023-05-17T23:54:42.188Z,100937.06
2023-05-17T23:57:09.549Z,100926.69
2023-05-17T23:59:37.335Z,100924.94
